sensor_id;sensor_type;location;lat;lon;timestamp;P1;durP1;ratioP1;P2;durP2;ratioP2
55340;SDS011;58855;44.984;20.158;2022-07-24T00:00:07;14.98;;;13.43;;
55340;SDS011;58855;44.984;20.158;2022-07-24T00:02:33;18.23;;;10.63;;
55340;SDS011;58855;44.984;20.158;2022-07-24T00:04:59;17.05;;;7.85;;
55340;SDS011;58855;44.984;20.158;2022-07-24T00:07:27;13.77;;;6.53;;
55340;SDS011;58855;44.984;20.158;2022-07-24T00:09:53;12.40;;;9.60;;
55340;SDS011;58855;44.984;20.158;2022-07-24T00:12:19;20.92;;;16.05;;
55340;SDS011;58855;44.984;20.158;2022-07-24T00:14:45;18.80;;;11.45;;
55340;SDS011;58855;44.984;20.158;2022-07-24T00:17:11;16.63;;;9.18;;
55340;SDS011;58855;44.984;20.158;2022-07-24T00:19:37;14.65;;;7.63;;
55340;SDS011;58855;44.984;20.158;2022-07-24T00:22:04;12.77;;;6.97;;
55340;SDS011;58855;44.984;20.158;2022-07-24T00:24:30;13.75;;;7.63;;
55340;SDS011;58855;44.984;20.158;2022-07-24T00:26:56;20.77;;;7.85;;
55340;SDS011;58855;44.984;20.158;2022-07-24T00:29:22;16.85;;;7.63;;
55340;SDS011;58855;44.984;20.158;2022-07-24T00:31:48;16.80;;;7.40;;
55340;SDS011;58855;44.984;20.158;2022-07-24T00:34:14;15.38;;;7.45;;
55340;SDS011;58855;44.984;20.158;2022-07-24T00:36:40;16.13;;;6.78;;
55340;SDS011;58855;44.984;20.158;2022-07-24T00:39:08;16.23;;;7.82;;
55340;SDS011;58855;44.984;20.158;2022-07-24T00:41:34;20.33;;;7.90;;
55340;SDS011;58855;44.984;20.158;2022-07-24T00:44:02;26.13;;;9.07;;
55340;SDS011;58855;44.984;20.158;2022-07-24T00:46:29;19.13;;;7.85;;
55340;SDS011;58855;44.984;20.158;2022-07-24T00:48:55;17.42;;;7.38;;
55340;SDS011;58855;44.984;20.158;2022-07-24T00:51:22;17.83;;;9.25;;
55340;SDS011;58855;44.984;20.158;2022-07-24T00:53:48;15.60;;;7.55;;
55340;SDS011;58855;44.984;20.158;2022-07-24T00:56:15;18.40;;;8.75;;
55340;SDS011;58855;44.984;20.158;2022-07-24T00:58:41;19.30;;;8.43;;
55340;SDS011;58855;44.984;20.158;2022-07-24T01:01:07;12.88;;;7.65;;
55340;SDS011;58855;44.984;20.158;2022-07-24T01:03:33;16.15;;;8.15;;
55340;SDS011;58855;44.984;20.158;2022-07-24T01:05:59;21.83;;;7.57;;
55340;SDS011;58855;44.984;20.158;2022-07-24T01:08:25;16.90;;;7.88;;
55340;SDS011;58855;44.984;20.158;2022-07-24T01:10:52;20.38;;;8.93;;
55340;SDS011;58855;44.984;20.158;2022-07-24T01:13:18;13.48;;;8.60;;
55340;SDS011;58855;44.984;20.158;2022-07-24T01:15:46;21.42;;;8.80;;
55340;SDS011;58855;44.984;20.158;2022-07-24T01:18:12;13.23;;;8.48;;
55340;SDS011;58855;44.984;20.158;2022-07-24T01:20:38;17.95;;;8.25;;
55340;SDS011;58855;44.984;20.158;2022-07-24T01:23:05;20.20;;;7.88;;
55340;SDS011;58855;44.984;20.158;2022-07-24T01:25:31;18.95;;;8.02;;
55340;SDS011;58855;44.984;20.158;2022-07-24T01:27:57;23.80;;;9.27;;
55340;SDS011;58855;44.984;20.158;2022-07-24T01:30:23;18.42;;;8.90;;
55340;SDS011;58855;44.984;20.158;2022-07-24T01:32:50;15.40;;;8.70;;
55340;SDS011;58855;44.984;20.158;2022-07-24T01:35:16;22.80;;;8.02;;
55340;SDS011;58855;44.984;20.158;2022-07-24T01:37:42;15.05;;;8.90;;
55340;SDS011;58855;44.984;20.158;2022-07-24T01:40:08;18.90;;;8.43;;
55340;SDS011;58855;44.984;20.158;2022-07-24T01:42:34;16.25;;;8.90;;
55340;SDS011;58855;44.984;20.158;2022-07-24T01:45:01;21.30;;;8.77;;
55340;SDS011;58855;44.984;20.158;2022-07-24T01:47:27;13.63;;;8.32;;
55340;SDS011;58855;44.984;20.158;2022-07-24T01:49:53;20.88;;;9.25;;
55340;SDS011;58855;44.984;20.158;2022-07-24T01:52:19;17.17;;;8.82;;
55340;SDS011;58855;44.984;20.158;2022-07-24T01:54:46;18.50;;;9.05;;
55340;SDS011;58855;44.984;20.158;2022-07-24T01:57:12;18.08;;;8.82;;
55340;SDS011;58855;44.984;20.158;2022-07-24T01:59:38;15.77;;;9.38;;
55340;SDS011;58855;44.984;20.158;2022-07-24T02:02:04;19.80;;;9.07;;
55340;SDS011;58855;44.984;20.158;2022-07-24T02:04:30;23.88;;;9.15;;
55340;SDS011;58855;44.984;20.158;2022-07-24T02:06:56;18.05;;;8.50;;
55340;SDS011;58855;44.984;20.158;2022-07-24T02:09:22;22.70;;;9.40;;
55340;SDS011;58855;44.984;20.158;2022-07-24T02:11:48;20.83;;;10.82;;
55340;SDS011;58855;44.984;20.158;2022-07-24T02:14:15;28.65;;;10.55;;
55340;SDS011;58855;44.984;20.158;2022-07-24T02:16:41;40.95;;;10.57;;
55340;SDS011;58855;44.984;20.158;2022-07-24T02:19:07;27.00;;;10.30;;
55340;SDS011;58855;44.984;20.158;2022-07-24T02:21:33;34.25;;;10.60;;
55340;SDS011;58855;44.984;20.158;2022-07-24T02:23:59;20.15;;;10.63;;
55340;SDS011;58855;44.984;20.158;2022-07-24T02:26:25;26.88;;;10.25;;
55340;SDS011;58855;44.984;20.158;2022-07-24T02:28:51;16.67;;;9.70;;
55340;SDS011;58855;44.984;20.158;2022-07-24T02:31:18;28.38;;;10.02;;
55340;SDS011;58855;44.984;20.158;2022-07-24T02:33:44;17.17;;;9.63;;
55340;SDS011;58855;44.984;20.158;2022-07-24T02:36:10;23.85;;;10.90;;
55340;SDS011;58855;44.984;20.158;2022-07-24T02:38:36;26.48;;;10.10;;
55340;SDS011;58855;44.984;20.158;2022-07-24T02:41:02;24.75;;;11.40;;
55340;SDS011;58855;44.984;20.158;2022-07-24T02:43:28;21.13;;;9.90;;
55340;SDS011;58855;44.984;20.158;2022-07-24T02:45:55;19.15;;;9.35;;
55340;SDS011;58855;44.984;20.158;2022-07-24T02:48:21;14.45;;;9.25;;
55340;SDS011;58855;44.984;20.158;2022-07-24T02:50:47;20.60;;;10.52;;
55340;SDS011;58855;44.984;20.158;2022-07-24T02:53:13;20.63;;;9.65;;
55340;SDS011;58855;44.984;20.158;2022-07-24T02:55:39;18.80;;;9.48;;
55340;SDS011;58855;44.984;20.158;2022-07-24T02:58:05;17.40;;;9.70;;
55340;SDS011;58855;44.984;20.158;2022-07-24T03:00:32;18.75;;;9.68;;
55340;SDS011;58855;44.984;20.158;2022-07-24T03:02:58;14.48;;;10.38;;
55340;SDS011;58855;44.984;20.158;2022-07-24T03:05:24;15.05;;;9.88;;
55340;SDS011;58855;44.984;20.158;2022-07-24T03:07:50;20.27;;;9.75;;
55340;SDS011;58855;44.984;20.158;2022-07-24T03:10:16;18.38;;;9.65;;
55340;SDS011;58855;44.984;20.158;2022-07-24T03:12:43;21.77;;;9.90;;
55340;SDS011;58855;44.984;20.158;2022-07-24T03:15:09;27.08;;;10.20;;
55340;SDS011;58855;44.984;20.158;2022-07-24T03:17:35;18.70;;;9.65;;
55340;SDS011;58855;44.984;20.158;2022-07-24T03:20:02;23.80;;;10.10;;
55340;SDS011;58855;44.984;20.158;2022-07-24T03:22:29;14.60;;;9.57;;
55340;SDS011;58855;44.984;20.158;2022-07-24T03:24:55;20.67;;;9.43;;
55340;SDS011;58855;44.984;20.158;2022-07-24T03:27:21;17.77;;;9.70;;
55340;SDS011;58855;44.984;20.158;2022-07-24T03:29:48;21.67;;;9.18;;
55340;SDS011;58855;44.984;20.158;2022-07-24T03:32:14;21.30;;;10.05;;
55340;SDS011;58855;44.984;20.158;2022-07-24T03:34:40;14.85;;;9.85;;
55340;SDS011;58855;44.984;20.158;2022-07-24T03:37:06;15.60;;;9.60;;
55340;SDS011;58855;44.984;20.158;2022-07-24T03:39:33;12.90;;;9.68;;
55340;SDS011;58855;44.984;20.158;2022-07-24T03:41:59;21.27;;;9.15;;
55340;SDS011;58855;44.984;20.158;2022-07-24T03:44:25;18.15;;;9.48;;
55340;SDS011;58855;44.984;20.158;2022-07-24T03:46:51;17.92;;;10.18;;
55340;SDS011;58855;44.984;20.158;2022-07-24T03:49:19;25.77;;;10.20;;
55340;SDS011;58855;44.984;20.158;2022-07-24T03:51:45;17.00;;;9.73;;
55340;SDS011;58855;44.984;20.158;2022-07-24T03:54:11;18.83;;;9.27;;
55340;SDS011;58855;44.984;20.158;2022-07-24T03:56:37;16.48;;;9.73;;
55340;SDS011;58855;44.984;20.158;2022-07-24T03:59:05;19.33;;;9.63;;
55340;SDS011;58855;44.984;20.158;2022-07-24T04:01:31;16.17;;;9.15;;
55340;SDS011;58855;44.984;20.158;2022-07-24T04:03:57;16.27;;;9.35;;
55340;SDS011;58855;44.984;20.158;2022-07-24T04:06:30;18.55;;;9.52;;
55340;SDS011;58855;44.984;20.158;2022-07-24T04:08:57;14.38;;;9.60;;
55340;SDS011;58855;44.984;20.158;2022-07-24T04:11:23;13.93;;;8.80;;
55340;SDS011;58855;44.984;20.158;2022-07-24T04:13:49;15.35;;;8.93;;
55340;SDS011;58855;44.984;20.158;2022-07-24T04:16:16;13.82;;;8.93;;
55340;SDS011;58855;44.984;20.158;2022-07-24T04:18:42;14.52;;;9.30;;
55340;SDS011;58855;44.984;20.158;2022-07-24T04:21:08;14.13;;;8.80;;
55340;SDS011;58855;44.984;20.158;2022-07-24T04:23:34;18.85;;;9.25;;
55340;SDS011;58855;44.984;20.158;2022-07-24T04:26:00;15.93;;;8.82;;
55340;SDS011;58855;44.984;20.158;2022-07-24T04:28:26;21.02;;;9.73;;
55340;SDS011;58855;44.984;20.158;2022-07-24T04:30:53;14.48;;;9.10;;
55340;SDS011;58855;44.984;20.158;2022-07-24T04:33:19;14.85;;;9.63;;
55340;SDS011;58855;44.984;20.158;2022-07-24T04:35:45;19.38;;;8.88;;
55340;SDS011;58855;44.984;20.158;2022-07-24T04:38:11;16.70;;;8.45;;
55340;SDS011;58855;44.984;20.158;2022-07-24T04:40:37;19.23;;;8.98;;
55340;SDS011;58855;44.984;20.158;2022-07-24T04:43:03;12.52;;;8.68;;
55340;SDS011;58855;44.984;20.158;2022-07-24T04:45:29;17.45;;;8.05;;
55340;SDS011;58855;44.984;20.158;2022-07-24T04:47:55;12.10;;;8.25;;
55340;SDS011;58855;44.984;20.158;2022-07-24T04:50:21;13.60;;;8.23;;
55340;SDS011;58855;44.984;20.158;2022-07-24T04:52:49;18.10;;;8.80;;
55340;SDS011;58855;44.984;20.158;2022-07-24T04:55:17;13.88;;;9.32;;
55340;SDS011;58855;44.984;20.158;2022-07-24T04:57:43;12.52;;;8.13;;
55340;SDS011;58855;44.984;20.158;2022-07-24T05:00:10;11.63;;;8.52;;
55340;SDS011;58855;44.984;20.158;2022-07-24T05:02:36;18.92;;;9.10;;
55340;SDS011;58855;44.984;20.158;2022-07-24T05:05:02;14.52;;;8.45;;
55340;SDS011;58855;44.984;20.158;2022-07-24T05:07:29;19.40;;;8.35;;
55340;SDS011;58855;44.984;20.158;2022-07-24T05:09:56;19.02;;;8.13;;
55340;SDS011;58855;44.984;20.158;2022-07-24T05:12:22;16.15;;;8.15;;
55340;SDS011;58855;44.984;20.158;2022-07-24T05:14:48;12.93;;;8.20;;
55340;SDS011;58855;44.984;20.158;2022-07-24T05:17:14;15.63;;;7.88;;
55340;SDS011;58855;44.984;20.158;2022-07-24T05:19:41;25.13;;;8.60;;
55340;SDS011;58855;44.984;20.158;2022-07-24T05:22:09;21.45;;;8.00;;
55340;SDS011;58855;44.984;20.158;2022-07-24T05:24:35;15.95;;;7.65;;
55340;SDS011;58855;44.984;20.158;2022-07-24T05:27:01;15.95;;;8.13;;
55340;SDS011;58855;44.984;20.158;2022-07-24T05:29:27;8.93;;;6.88;;
55340;SDS011;58855;44.984;20.158;2022-07-24T05:31:54;14.38;;;7.00;;
55340;SDS011;58855;44.984;20.158;2022-07-24T05:34:21;14.52;;;7.97;;
55340;SDS011;58855;44.984;20.158;2022-07-24T05:36:47;12.55;;;6.72;;
55340;SDS011;58855;44.984;20.158;2022-07-24T05:39:14;14.25;;;7.43;;
55340;SDS011;58855;44.984;20.158;2022-07-24T05:41:40;13.68;;;7.95;;
55340;SDS011;58855;44.984;20.158;2022-07-24T05:44:06;14.98;;;7.90;;
55340;SDS011;58855;44.984;20.158;2022-07-24T05:46:32;14.63;;;7.60;;
55340;SDS011;58855;44.984;20.158;2022-07-24T05:48:58;14.30;;;7.97;;
55340;SDS011;58855;44.984;20.158;2022-07-24T05:51:25;16.27;;;7.30;;
55340;SDS011;58855;44.984;20.158;2022-07-24T05:53:51;16.60;;;6.93;;
55340;SDS011;58855;44.984;20.158;2022-07-24T05:56:17;14.88;;;7.18;;
55340;SDS011;58855;44.984;20.158;2022-07-24T05:58:43;22.48;;;7.57;;
55340;SDS011;58855;44.984;20.158;2022-07-24T06:01:10;20.77;;;7.18;;
55340;SDS011;58855;44.984;20.158;2022-07-24T06:03:36;15.25;;;6.78;;
55340;SDS011;58855;44.984;20.158;2022-07-24T06:06:03;15.23;;;6.15;;
55340;SDS011;58855;44.984;20.158;2022-07-24T06:08:29;15.93;;;6.82;;
55340;SDS011;58855;44.984;20.158;2022-07-24T06:10:55;12.70;;;6.40;;
55340;SDS011;58855;44.984;20.158;2022-07-24T06:13:21;12.90;;;6.38;;
55340;SDS011;58855;44.984;20.158;2022-07-24T06:15:47;18.10;;;6.45;;
55340;SDS011;58855;44.984;20.158;2022-07-24T06:18:13;12.57;;;6.47;;
55340;SDS011;58855;44.984;20.158;2022-07-24T06:20:40;22.38;;;7.50;;
55340;SDS011;58855;44.984;20.158;2022-07-24T06:23:06;13.02;;;6.65;;
55340;SDS011;58855;44.984;20.158;2022-07-24T06:25:32;10.15;;;6.63;;
55340;SDS011;58855;44.984;20.158;2022-07-24T06:27:58;13.10;;;6.22;;
55340;SDS011;58855;44.984;20.158;2022-07-24T06:30:26;17.45;;;6.15;;
55340;SDS011;58855;44.984;20.158;2022-07-24T06:32:53;15.40;;;5.90;;
55340;SDS011;58855;44.984;20.158;2022-07-24T06:35:19;13.38;;;6.13;;
55340;SDS011;58855;44.984;20.158;2022-07-24T06:37:46;11.70;;;5.78;;
55340;SDS011;58855;44.984;20.158;2022-07-24T06:40:12;13.00;;;5.90;;
55340;SDS011;58855;44.984;20.158;2022-07-24T06:42:38;14.95;;;6.00;;
55340;SDS011;58855;44.984;20.158;2022-07-24T06:45:05;9.80;;;5.70;;
55340;SDS011;58855;44.984;20.158;2022-07-24T06:47:31;11.90;;;5.57;;
55340;SDS011;58855;44.984;20.158;2022-07-24T06:49:57;7.70;;;5.78;;
55340;SDS011;58855;44.984;20.158;2022-07-24T06:52:23;12.65;;;7.35;;
55340;SDS011;58855;44.984;20.158;2022-07-24T06:54:49;19.52;;;8.57;;
55340;SDS011;58855;44.984;20.158;2022-07-24T06:57:16;16.80;;;8.43;;
55340;SDS011;58855;44.984;20.158;2022-07-24T06:59:43;18.27;;;7.97;;
55340;SDS011;58855;44.984;20.158;2022-07-24T07:02:09;18.92;;;7.97;;
55340;SDS011;58855;44.984;20.158;2022-07-24T07:04:35;14.70;;;7.78;;
55340;SDS011;58855;44.984;20.158;2022-07-24T07:07:02;19.10;;;7.68;;
55340;SDS011;58855;44.984;20.158;2022-07-24T07:09:28;15.70;;;7.30;;
55340;SDS011;58855;44.984;20.158;2022-07-24T07:11:54;10.60;;;6.68;;
55340;SDS011;58855;44.984;20.158;2022-07-24T07:14:21;11.40;;;6.38;;
55340;SDS011;58855;44.984;20.158;2022-07-24T07:16:47;14.02;;;6.25;;
55340;SDS011;58855;44.984;20.158;2022-07-24T07:19:13;10.15;;;6.60;;
55340;SDS011;58855;44.984;20.158;2022-07-24T07:21:39;9.55;;;6.68;;
55340;SDS011;58855;44.984;20.158;2022-07-24T07:24:06;10.60;;;6.45;;
55340;SDS011;58855;44.984;20.158;2022-07-24T07:26:32;17.40;;;6.47;;
55340;SDS011;58855;44.984;20.158;2022-07-24T07:28:58;13.00;;;6.00;;
55340;SDS011;58855;44.984;20.158;2022-07-24T07:31:24;19.55;;;6.38;;
55340;SDS011;58855;44.984;20.158;2022-07-24T07:33:51;10.70;;;6.10;;
55340;SDS011;58855;44.984;20.158;2022-07-24T07:36:18;9.55;;;6.32;;
55340;SDS011;58855;44.984;20.158;2022-07-24T07:38:44;19.55;;;6.93;;
55340;SDS011;58855;44.984;20.158;2022-07-24T07:41:10;11.10;;;5.20;;
55340;SDS011;58855;44.984;20.158;2022-07-24T07:43:37;13.00;;;5.10;;
55340;SDS011;58855;44.984;20.158;2022-07-24T07:46:04;12.30;;;5.22;;
55340;SDS011;58855;44.984;20.158;2022-07-24T07:48:30;13.48;;;5.93;;
55340;SDS011;58855;44.984;20.158;2022-07-24T07:50:57;13.95;;;5.47;;
55340;SDS011;58855;44.984;20.158;2022-07-24T07:53:23;12.25;;;5.18;;
55340;SDS011;58855;44.984;20.158;2022-07-24T07:55:49;10.77;;;5.30;;
55340;SDS011;58855;44.984;20.158;2022-07-24T07:58:17;11.48;;;5.13;;
55340;SDS011;58855;44.984;20.158;2022-07-24T08:00:43;7.10;;;4.10;;
55340;SDS011;58855;44.984;20.158;2022-07-24T08:03:09;7.55;;;4.72;;
55340;SDS011;58855;44.984;20.158;2022-07-24T08:05:36;9.00;;;5.07;;
55340;SDS011;58855;44.984;20.158;2022-07-24T08:08:02;9.88;;;5.07;;
55340;SDS011;58855;44.984;20.158;2022-07-24T08:10:28;9.85;;;4.75;;
55340;SDS011;58855;44.984;20.158;2022-07-24T08:12:55;9.27;;;5.53;;
55340;SDS011;58855;44.984;20.158;2022-07-24T08:15:21;13.70;;;4.60;;
55340;SDS011;58855;44.984;20.158;2022-07-24T08:17:54;8.50;;;5.55;;
55340;SDS011;58855;44.984;20.158;2022-07-24T08:20:20;20.35;;;6.72;;
55340;SDS011;58855;44.984;20.158;2022-07-24T08:22:47;9.43;;;5.53;;
55340;SDS011;58855;44.984;20.158;2022-07-24T08:25:13;11.50;;;6.15;;
55340;SDS011;58855;44.984;20.158;2022-07-24T08:27:39;12.05;;;5.90;;
55340;SDS011;58855;44.984;20.158;2022-07-24T08:30:06;13.25;;;6.70;;
55340;SDS011;58855;44.984;20.158;2022-07-24T08:32:33;10.18;;;6.50;;
55340;SDS011;58855;44.984;20.158;2022-07-24T08:34:59;9.50;;;6.97;;
55340;SDS011;58855;44.984;20.158;2022-07-24T08:37:25;12.77;;;6.43;;
55340;SDS011;58855;44.984;20.158;2022-07-24T08:39:51;10.13;;;6.53;;
55340;SDS011;58855;44.984;20.158;2022-07-24T08:42:19;13.63;;;7.20;;
55340;SDS011;58855;44.984;20.158;2022-07-24T08:44:46;14.25;;;7.20;;
55340;SDS011;58855;44.984;20.158;2022-07-24T08:47:12;10.48;;;7.43;;
55340;SDS011;58855;44.984;20.158;2022-07-24T08:49:40;10.10;;;6.32;;
55340;SDS011;58855;44.984;20.158;2022-07-24T08:52:06;11.30;;;6.55;;
55340;SDS011;58855;44.984;20.158;2022-07-24T08:54:35;10.85;;;7.00;;
55340;SDS011;58855;44.984;20.158;2022-07-24T08:57:04;12.40;;;7.30;;
55340;SDS011;58855;44.984;20.158;2022-07-24T08:59:30;11.05;;;6.38;;
55340;SDS011;58855;44.984;20.158;2022-07-24T09:01:57;12.40;;;7.28;;
55340;SDS011;58855;44.984;20.158;2022-07-24T09:04:33;13.13;;;8.07;;
55340;SDS011;58855;44.984;20.158;2022-07-24T09:07:00;13.55;;;10.43;;
55340;SDS011;58855;44.984;20.158;2022-07-24T09:09:26;10.73;;;6.15;;
55340;SDS011;58855;44.984;20.158;2022-07-24T09:12:09;10.63;;;5.97;;
55340;SDS011;58855;44.984;20.158;2022-07-24T09:14:38;8.48;;;5.97;;
55340;SDS011;58855;44.984;20.158;2022-07-24T09:17:05;10.13;;;5.80;;
55340;SDS011;58855;44.984;20.158;2022-07-24T09:27:40;16.38;;;6.00;;
55340;SDS011;58855;44.984;20.158;2022-07-24T09:30:07;8.63;;;6.28;;
55340;SDS011;58855;44.984;20.158;2022-07-24T09:32:34;10.50;;;5.97;;
55340;SDS011;58855;44.984;20.158;2022-07-24T09:35:01;10.93;;;5.38;;
55340;SDS011;58855;44.984;20.158;2022-07-24T09:37:27;9.55;;;5.30;;
55340;SDS011;58855;44.984;20.158;2022-07-24T09:39:56;16.92;;;5.93;;
55340;SDS011;58855;44.984;20.158;2022-07-24T09:42:31;6.68;;;5.20;;
55340;SDS011;58855;44.984;20.158;2022-07-24T09:45:04;12.00;;;5.63;;
55340;SDS011;58855;44.984;20.158;2022-07-24T09:47:33;7.00;;;5.18;;
55340;SDS011;58855;44.984;20.158;2022-07-24T09:52:55;14.35;;;5.60;;
55340;SDS011;58855;44.984;20.158;2022-07-24T09:55:22;9.57;;;5.35;;
55340;SDS011;58855;44.984;20.158;2022-07-24T09:57:49;10.27;;;5.45;;
55340;SDS011;58855;44.984;20.158;2022-07-24T10:00:15;8.90;;;4.95;;
55340;SDS011;58855;44.984;20.158;2022-07-24T10:02:43;10.57;;;5.97;;
55340;SDS011;58855;44.984;20.158;2022-07-24T10:05:09;8.07;;;5.25;;
55340;SDS011;58855;44.984;20.158;2022-07-24T10:07:36;7.13;;;4.97;;
55340;SDS011;58855;44.984;20.158;2022-07-24T10:10:03;7.60;;;5.20;;
55340;SDS011;58855;44.984;20.158;2022-07-24T10:12:30;19.15;;;5.22;;
55340;SDS011;58855;44.984;20.158;2022-07-24T10:14:58;6.55;;;4.88;;
55340;SDS011;58855;44.984;20.158;2022-07-24T10:19:57;13.55;;;5.32;;
55340;SDS011;58855;44.984;20.158;2022-07-24T10:22:28;8.35;;;4.90;;
55340;SDS011;58855;44.984;20.158;2022-07-24T10:24:58;7.80;;;5.00;;
55340;SDS011;58855;44.984;20.158;2022-07-24T10:27:26;12.05;;;5.15;;
55340;SDS011;58855;44.984;20.158;2022-07-24T10:29:53;10.73;;;4.93;;
55340;SDS011;58855;44.984;20.158;2022-07-24T10:32:20;10.05;;;4.93;;
55340;SDS011;58855;44.984;20.158;2022-07-24T10:42:31;6.80;;;4.60;;
55340;SDS011;58855;44.984;20.158;2022-07-24T10:45:14;11.85;;;4.97;;
55340;SDS011;58855;44.984;20.158;2022-07-24T10:47:40;8.55;;;5.22;;
55340;SDS011;58855;44.984;20.158;2022-07-24T10:50:06;131.35;;;11.18;;
55340;SDS011;58855;44.984;20.158;2022-07-24T10:52:33;6.20;;;4.50;;
55340;SDS011;58855;44.984;20.158;2022-07-24T10:57:46;5.72;;;4.70;;
55340;SDS011;58855;44.984;20.158;2022-07-24T11:03:02;9.27;;;5.18;;
55340;SDS011;58855;44.984;20.158;2022-07-24T11:05:30;7.45;;;4.10;;
55340;SDS011;58855;44.984;20.158;2022-07-24T11:10:52;9.10;;;3.90;;
55340;SDS011;58855;44.984;20.158;2022-07-24T11:18:42;7.57;;;4.68;;
55340;SDS011;58855;44.984;20.158;2022-07-24T11:21:31;5.90;;;4.10;;
55340;SDS011;58855;44.984;20.158;2022-07-24T11:29:36;7.07;;;4.10;;
55340;SDS011;58855;44.984;20.158;2022-07-24T11:32:07;7.72;;;4.15;;
55340;SDS011;58855;44.984;20.158;2022-07-24T11:34:35;9.02;;;4.68;;
55340;SDS011;58855;44.984;20.158;2022-07-24T11:37:03;7.75;;;4.30;;
55340;SDS011;58855;44.984;20.158;2022-07-24T11:39:37;8.90;;;4.60;;
55340;SDS011;58855;44.984;20.158;2022-07-24T11:42:05;7.85;;;4.45;;
55340;SDS011;58855;44.984;20.158;2022-07-24T11:44:40;6.88;;;4.15;;
55340;SDS011;58855;44.984;20.158;2022-07-24T11:50:06;8.85;;;4.47;;
55340;SDS011;58855;44.984;20.158;2022-07-24T11:54:53;11.35;;;4.72;;
55340;SDS011;58855;44.984;20.158;2022-07-24T11:57:24;8.55;;;3.97;;
55340;SDS011;58855;44.984;20.158;2022-07-24T11:59:51;7.78;;;3.83;;
55340;SDS011;58855;44.984;20.158;2022-07-24T12:02:17;9.15;;;4.05;;
55340;SDS011;58855;44.984;20.158;2022-07-24T12:04:44;5.32;;;3.90;;
55340;SDS011;58855;44.984;20.158;2022-07-24T12:07:11;6.70;;;3.67;;
55340;SDS011;58855;44.984;20.158;2022-07-24T12:12:25;9.33;;;4.13;;
55340;SDS011;58855;44.984;20.158;2022-07-24T12:14:52;7.45;;;4.25;;
55340;SDS011;58855;44.984;20.158;2022-07-24T12:17:18;8.23;;;4.95;;
55340;SDS011;58855;44.984;20.158;2022-07-24T12:19:55;6.18;;;4.15;;
55340;SDS011;58855;44.984;20.158;2022-07-24T12:22:22;6.32;;;4.40;;
55340;SDS011;58855;44.984;20.158;2022-07-24T12:24:49;9.95;;;5.20;;
55340;SDS011;58855;44.984;20.158;2022-07-24T12:27:36;6.97;;;4.80;;
55340;SDS011;58855;44.984;20.158;2022-07-24T12:30:02;8.50;;;4.32;;
55340;SDS011;58855;44.984;20.158;2022-07-24T12:32:29;6.40;;;4.78;;
55340;SDS011;58855;44.984;20.158;2022-07-24T12:34:55;9.63;;;5.18;;
55340;SDS011;58855;44.984;20.158;2022-07-24T12:37:23;5.43;;;4.50;;
55340;SDS011;58855;44.984;20.158;2022-07-24T12:39:50;7.75;;;4.75;;
55340;SDS011;58855;44.984;20.158;2022-07-24T12:42:17;9.85;;;4.85;;
55340;SDS011;58855;44.984;20.158;2022-07-24T12:44:45;7.93;;;4.68;;
55340;SDS011;58855;44.984;20.158;2022-07-24T12:47:11;7.88;;;4.85;;
55340;SDS011;58855;44.984;20.158;2022-07-24T12:49:41;6.13;;;4.43;;
55340;SDS011;58855;44.984;20.158;2022-07-24T12:52:23;8.02;;;5.28;;
55340;SDS011;58855;44.984;20.158;2022-07-24T12:54:50;11.05;;;6.68;;
55340;SDS011;58855;44.984;20.158;2022-07-24T12:57:19;11.35;;;5.53;;
55340;SDS011;58855;44.984;20.158;2022-07-24T12:59:46;8.27;;;5.45;;
55340;SDS011;58855;44.984;20.158;2022-07-24T13:02:22;9.85;;;5.50;;
55340;SDS011;58855;44.984;20.158;2022-07-24T13:04:52;6.05;;;4.88;;
55340;SDS011;58855;44.984;20.158;2022-07-24T13:07:22;9.48;;;4.97;;
55340;SDS011;58855;44.984;20.158;2022-07-24T13:09:49;9.23;;;6.00;;
55340;SDS011;58855;44.984;20.158;2022-07-24T13:12:15;10.82;;;5.30;;
55340;SDS011;58855;44.984;20.158;2022-07-24T13:14:42;8.95;;;4.78;;
55340;SDS011;58855;44.984;20.158;2022-07-24T13:17:11;9.98;;;5.47;;
55340;SDS011;58855;44.984;20.158;2022-07-24T13:19:38;11.00;;;6.38;;
55340;SDS011;58855;44.984;20.158;2022-07-24T13:22:04;12.90;;;6.88;;
55340;SDS011;58855;44.984;20.158;2022-07-24T13:24:30;11.20;;;6.80;;
55340;SDS011;58855;44.984;20.158;2022-07-24T13:26:58;11.85;;;5.80;;
55340;SDS011;58855;44.984;20.158;2022-07-24T13:29:24;11.07;;;5.18;;
55340;SDS011;58855;44.984;20.158;2022-07-24T13:31:51;14.23;;;5.60;;
55340;SDS011;58855;44.984;20.158;2022-07-24T13:34:17;8.88;;;5.00;;
55340;SDS011;58855;44.984;20.158;2022-07-24T13:36:43;9.20;;;5.20;;
55340;SDS011;58855;44.984;20.158;2022-07-24T13:39:10;11.35;;;5.72;;
55340;SDS011;58855;44.984;20.158;2022-07-24T13:41:36;13.80;;;5.63;;
55340;SDS011;58855;44.984;20.158;2022-07-24T13:44:03;15.52;;;5.43;;
55340;SDS011;58855;44.984;20.158;2022-07-24T13:46:30;12.60;;;4.88;;
55340;SDS011;58855;44.984;20.158;2022-07-24T13:48:56;13.48;;;4.72;;
55340;SDS011;58855;44.984;20.158;2022-07-24T13:51:22;8.25;;;4.82;;
55340;SDS011;58855;44.984;20.158;2022-07-24T13:53:49;6.20;;;4.53;;
55340;SDS011;58855;44.984;20.158;2022-07-24T13:56:16;12.82;;;4.90;;
55340;SDS011;58855;44.984;20.158;2022-07-24T13:58:42;8.15;;;4.60;;
55340;SDS011;58855;44.984;20.158;2022-07-24T14:01:08;11.77;;;5.50;;
55340;SDS011;58855;44.984;20.158;2022-07-24T14:03:35;14.35;;;5.63;;
55340;SDS011;58855;44.984;20.158;2022-07-24T14:06:06;8.73;;;4.82;;
55340;SDS011;58855;44.984;20.158;2022-07-24T14:08:34;12.30;;;6.10;;
55340;SDS011;58855;44.984;20.158;2022-07-24T14:11:00;9.93;;;5.30;;
55340;SDS011;58855;44.984;20.158;2022-07-24T14:13:26;11.38;;;5.00;;
55340;SDS011;58855;44.984;20.158;2022-07-24T14:15:52;8.00;;;4.97;;
55340;SDS011;58855;44.984;20.158;2022-07-24T14:18:19;8.68;;;5.10;;
55340;SDS011;58855;44.984;20.158;2022-07-24T14:20:46;11.23;;;5.00;;
55340;SDS011;58855;44.984;20.158;2022-07-24T14:23:12;7.40;;;4.70;;
55340;SDS011;58855;44.984;20.158;2022-07-24T14:25:38;8.32;;;4.82;;
55340;SDS011;58855;44.984;20.158;2022-07-24T14:28:04;7.50;;;4.60;;
55340;SDS011;58855;44.984;20.158;2022-07-24T14:30:33;6.45;;;4.38;;
55340;SDS011;58855;44.984;20.158;2022-07-24T14:32:59;6.88;;;4.88;;
55340;SDS011;58855;44.984;20.158;2022-07-24T14:35:26;7.88;;;4.63;;
55340;SDS011;58855;44.984;20.158;2022-07-24T14:37:52;8.90;;;4.50;;
55340;SDS011;58855;44.984;20.158;2022-07-24T14:40:18;9.10;;;4.95;;
55340;SDS011;58855;44.984;20.158;2022-07-24T14:42:45;7.88;;;5.10;;
55340;SDS011;58855;44.984;20.158;2022-07-24T14:45:11;8.27;;;5.50;;
55340;SDS011;58855;44.984;20.158;2022-07-24T14:47:37;7.38;;;5.10;;
55340;SDS011;58855;44.984;20.158;2022-07-24T14:50:05;8.93;;;5.47;;
55340;SDS011;58855;44.984;20.158;2022-07-24T14:52:31;9.80;;;6.13;;
55340;SDS011;58855;44.984;20.158;2022-07-24T14:54:57;9.65;;;6.03;;
55340;SDS011;58855;44.984;20.158;2022-07-24T14:57:24;8.55;;;6.20;;
55340;SDS011;58855;44.984;20.158;2022-07-24T14:59:51;12.70;;;6.15;;
55340;SDS011;58855;44.984;20.158;2022-07-24T15:02:17;9.50;;;6.63;;
55340;SDS011;58855;44.984;20.158;2022-07-24T15:04:43;10.45;;;6.20;;
55340;SDS011;58855;44.984;20.158;2022-07-24T15:07:09;11.25;;;6.20;;
55340;SDS011;58855;44.984;20.158;2022-07-24T15:09:35;7.80;;;5.57;;